Time;durP1;ratioP1;P1;durP2;ratioP2;P2;SDS_P1;SDS_P2;PMS_P1;PMS_P2;Temp;Humidity;BMP_temperature;BMP_pressure;BME280_temperature;BME280_humidity;BME280_pressure;Samples;Min_cycle;Max_cycle;Signal;HPM_P1;HPM_P2
2021/12/11 00:00:04;;;;;;;6.63;5.43;;;-0.40;99.90;;;;;;5002720;28;20551;-50
2021/12/11 00:02:33;;;;;;;7.03;4.63;;;-0.40;99.90;;;;;;5005396;28;20485;-49
2021/12/11 00:05:01;;;;;;;5.60;5.00;;;-0.40;99.90;;;;;;5009289;28;21082;-48
2021/12/11 00:07:30;;;;;;;7.53;4.20;;;-0.40;99.90;;;;;;5000887;28;20798;-49
2021/12/11 00:10:05;;;;;;;4.20;3.80;;;-0.40;99.90;;;;;;5005420;28;20532;-49
2021/12/11 00:12:35;;;;;;;5.27;3.67;;;-0.60;99.90;;;;;;5001752;28;20538;-49
2021/12/11 00:15:09;;;;;;;3.07;2.77;;;-0.80;99.90;;;;;;5005091;28;20541;-49
2021/12/11 00:17:36;;;;;;;4.07;3.67;;;-1.20;99.90;;;;;;5004635;28;20557;-49
2021/12/11 00:20:09;;;;;;;3.50;3.20;;;-1.20;99.90;;;;;;4999541;28;20472;-49
2021/12/11 00:22:36;;;;;;;4.50;3.67;;;-1.00;99.90;;;;;;5002863;28;20542;-48
2021/12/11 00:25:10;;;;;;;3.60;3.20;;;-0.90;99.90;;;;;;4999258;28;20457;-48
2021/12/11 00:27:39;;;;;;;5.87;4.33;;;-0.80;99.90;;;;;;5003889;28;20936;-50
2021/12/11 00:30:10;;;;;;;13.73;8.30;;;-0.70;99.90;;;;;;5004699;28;20479;-49
2021/12/11 00:32:38;;;;;;;10.70;7.07;;;-0.80;99.90;;;;;;5003730;28;20457;-49
2021/12/11 00:35:09;;;;;;;8.63;7.47;;;-1.00;99.90;;;;;;5004719;28;20527;-51
2021/12/11 00:37:37;;;;;;;5.23;4.27;;;-1.30;99.90;;;;;;5005281;28;20589;-47
2021/12/11 00:40:10;;;;;;;4.37;3.97;;;-1.20;99.90;;;;;;5002748;28;20519;-49
2021/12/11 00:42:38;;;;;;;3.97;3.57;;;-1.10;99.90;;;;;;5002520;28;20543;-49
2021/12/11 00:45:11;;;;;;;3.63;3.33;;;-1.00;99.90;;;;;;5004673;28;20982;-51
2021/12/11 00:47:44;;;;;;;3.50;3.30;;;-1.50;99.90;;;;;;5004974;28;20578;-49
2021/12/11 00:50:13;;;;;;;4.60;3.70;;;-1.30;99.90;;;;;;5005996;28;20546;-50
2021/12/11 00:52:42;;;;;;;11.30;9.10;;;-1.20;99.90;;;;;;5004136;28;21032;-48
2021/12/11 00:55:19;;;;;;;15.33;9.63;;;-1.00;99.90;;;;;;5009218;28;20543;-49
2021/12/11 00:57:49;;;;;;;5.37;4.80;;;-1.10;99.90;;;;;;5006922;28;20554;-52
2021/12/11 01:00:21;;;;;;;3.00;2.70;;;-1.00;99.90;;;;;;5010288;28;20540;-50
2021/12/11 01:02:52;;;;;;;2.83;2.63;;;-0.90;99.90;;;;;;5004117;28;20529;-49
2021/12/11 01:05:19;;;;;;;2.83;2.47;;;-0.90;99.90;;;;;;5011607;28;20536;-49
2021/12/11 01:07:46;;;;;;;2.60;2.40;;;-0.90;99.90;;;;;;5006358;28;20573;-50
2021/12/11 01:10:21;;;;;;;5.30;3.20;;;-1.20;99.90;;;;;;5007953;28;20491;-50
2021/12/11 01:12:56;;;;;;;3.80;3.50;;;-1.40;99.90;;;;;;5008737;28;20447;-50
2021/12/11 01:15:26;;;;;;;3.87;3.40;;;-1.40;99.90;;;;;;5008435;28;20483;-48
2021/12/11 01:18:04;;;;;;;7.97;7.13;;;-1.20;99.90;;;;;;5005373;28;20905;-49
2021/12/11 01:20:36;;;;;;;15.90;10.40;;;-1.00;99.90;;;;;;5006191;28;20450;-50
2021/12/11 01:23:14;;;;;;;13.57;12.17;;;-1.60;99.90;;;;;;5008730;28;20550;-51
2021/12/11 01:25:43;;;;;;;12.97;9.90;;;-2.00;99.90;;;;;;5007625;28;20462;-49
2021/12/11 01:28:10;;;;;;;6.70;6.10;;;-2.00;99.90;;;;;;5009129;28;20564;-48
2021/12/11 01:30:40;;;;;;;8.50;6.30;;;-1.90;99.90;;;;;;5009040;28;20539;-49
2021/12/11 01:33:11;;;;;;;6.63;5.93;;;-1.80;99.90;;;;;;5006605;28;20528;-51
2021/12/11 01:35:40;;;;;;;8.17;6.90;;;-1.60;99.90;;;;;;5011642;28;20540;-50
2021/12/11 01:38:12;;;;;;;12.60;8.50;;;-1.40;99.90;;;;;;5008950;28;20805;-49
2021/12/11 01:40:39;;;;;;;8.87;6.90;;;-1.40;99.90;;;;;;5009365;28;20704;-50
2021/12/11 01:43:10;;;;;;;7.00;6.30;;;-1.90;99.90;;;;;;5010179;28;20526;-48
2021/12/11 01:45:42;;;;;;;14.57;9.83;;;-1.60;99.90;;;;;;5011972;28;20482;-50
2021/12/11 01:48:09;;;;;;;10.93;7.87;;;-1.40;99.90;;;;;;5011345;28;20570;-48
2021/12/11 01:50:40;;;;;;;10.27;9.30;;;-1.60;99.90;;;;;;5007114;28;20540;-50
2021/12/11 01:53:12;;;;;;;9.23;7.13;;;-1.70;99.90;;;;;;5009149;28;20456;-48
2021/12/11 01:55:43;;;;;;;10.50;7.20;;;-1.50;99.90;;;;;;5008449;28;20489;-48
2021/12/11 01:58:14;;;;;;;8.03;6.93;;;-1.30;99.90;;;;;;5006210;28;20497;-50
2021/12/11 02:00:45;;;;;;;7.83;7.00;;;-1.50;99.90;;;;;;5008372;28;20475;-48
2021/12/11 02:03:16;;;;;;;12.07;7.90;;;-1.50;99.90;;;;;;5007370;28;20499;-48
2021/12/11 02:05:44;;;;;;;8.17;7.47;;;-1.30;99.90;;;;;;5010181;28;20551;-49
2021/12/11 02:08:15;;;;;;;10.00;8.53;;;-1.20;99.90;;;;;;5010120;28;20507;-49
2021/12/11 02:10:46;;;;;;;11.67;9.00;;;-1.10;99.90;;;;;;5011117;28;20974;-48
2021/12/11 02:13:21;;;;;;;8.60;7.80;;;-1.00;99.90;;;;;;5003673;28;20476;-52
2021/12/11 02:15:51;;;;;;;11.27;9.20;;;-0.90;99.90;;;;;;5005393;28;20932;-49
2021/12/11 02:18:22;;;;;;;11.23;8.10;;;-1.00;99.90;;;;;;5009875;28;20464;-49
2021/12/11 02:20:55;;;;;;;8.90;7.50;;;-1.10;99.90;;;;;;5011252;28;20939;-48
2021/12/11 02:23:25;;;;;;;11.30;9.03;;;-1.10;99.90;;;;;;5009794;28;20470;-50
2021/12/11 02:25:55;;;;;;;12.70;11.40;;;-0.90;99.90;;;;;;5003067;28;20480;-50
2021/12/11 02:28:29;;;;;;;13.23;10.80;;;-0.80;99.90;;;;;;5009952;28;20760;-48
2021/12/11 02:31:05;;;;;;;12.83;10.90;;;-0.80;99.90;;;;;;5004046;28;21027;-50
2021/12/11 02:33:38;;;;;;;8.07;7.30;;;-0.70;99.90;;;;;;5009938;28;20534;-50
2021/12/11 02:36:11;;;;;;;8.07;6.63;;;-0.70;99.90;;;;;;5008910;28;20536;-48
2021/12/11 02:38:44;;;;;;;10.07;9.00;;;-0.60;99.90;;;;;;5002465;28;20472;-48
2021/12/11 02:41:15;;;;;;;7.67;6.97;;;-0.60;99.90;;;;;;5007022;28;20452;-48
2021/12/11 02:43:49;;;;;;;7.80;6.53;;;-0.60;99.90;;;;;;5008857;28;20579;-50
2021/12/11 02:46:27;;;;;;;7.90;7.10;;;-0.50;99.90;;;;;;5005906;28;20471;-48
2021/12/11 02:48:58;;;;;;;8.77;7.63;;;-0.50;99.90;;;;;;5007638;28;20539;-48
2021/12/11 02:51:30;;;;;;;8.57;7.60;;;-1.40;99.90;;;;;;5006227;28;20880;-47
2021/12/11 02:54:05;;;;;;;7.87;7.07;;;-1.80;99.90;;;;;;5008258;28;20860;-50
2021/12/11 02:56:35;;;;;;;8.77;7.83;;;-1.80;99.90;;;;;;5011013;28;20499;-50
2021/12/11 02:59:07;;;;;;;12.53;7.80;;;-1.60;99.90;;;;;;5005228;28;20536;-48
2021/12/11 03:01:40;;;;;;;7.57;6.40;;;-1.30;99.90;;;;;;5006645;28;20447;-51
2021/12/11 03:04:17;;;;;;;7.90;7.10;;;-1.20;99.90;;;;;;5005420;28;20933;-48
2021/12/11 03:06:47;;;;;;;7.93;7.13;;;-1.00;99.90;;;;;;5010303;28;20469;-50
2021/12/11 03:09:19;;;;;;;11.90;7.03;;;-0.90;99.90;;;;;;5005934;28;20451;-50
2021/12/11 03:11:47;;;;;;;6.53;5.90;;;-0.80;99.90;;;;;;5005258;28;20542;-49
2021/12/11 03:14:18;;;;;;;7.53;6.93;;;-0.70;99.90;;;;;;5005549;28;20885;-48
2021/12/11 03:16:46;;;;;;;6.30;5.70;;;-0.70;99.90;;;;;;5007321;28;20472;-48
2021/12/11 03:19:16;;;;;;;5.97;5.47;;;-0.60;99.90;;;;;;5009156;28;20511;-49
2021/12/11 03:21:44;;;;;;;8.83;6.90;;;-0.60;99.90;;;;;;5008353;28;20529;-48
2021/12/11 03:24:11;;;;;;;6.97;6.27;;;-0.50;99.90;;;;;;5006183;28;20527;-48
2021/12/11 03:26:42;;;;;;;11.00;7.57;;;-0.50;99.90;;;;;;5005485;28;21065;-49
2021/12/11 03:29:10;;;;;;;9.20;7.90;;;-0.50;99.90;;;;;;5008280;28;20556;-48
2021/12/11 03:31:38;;;;;;;8.00;6.93;;;-0.50;99.90;;;;;;5009306;28;20441;-50
2021/12/11 03:34:07;;;;;;;6.80;6.10;;;-0.40;99.90;;;;;;5002594;28;20482;-49
2021/12/11 03:36:35;;;;;;;6.93;6.23;;;-0.40;99.90;;;;;;5003325;28;20499;-51
2021/12/11 03:39:07;;;;;;;8.07;6.90;;;-0.40;99.90;;;;;;5008428;28;20533;-51
2021/12/11 03:41:34;;;;;;;7.50;6.20;;;-0.40;99.90;;;;;;5007425;28;20978;-48
2021/12/11 03:44:03;;;;;;;6.10;5.50;;;-0.40;99.90;;;;;;5005956;28;20535;-48
2021/12/11 03:46:30;;;;;;;5.47;4.97;;;-0.40;99.90;;;;;;5000779;28;20512;-48
2021/12/11 03:49:00;;;;;;;6.10;5.47;;;-0.90;99.90;;;;;;5007027;28;20999;-48
2021/12/11 03:51:31;;;;;;;6.93;6.33;;;-1.00;99.90;;;;;;5009030;28;20479;-48
2021/12/11 03:53:59;;;;;;;8.07;7.00;;;-0.90;99.90;;;;;;5004792;28;20457;-48
2021/12/11 03:56:27;;;;;;;6.40;5.70;;;-0.90;99.90;;;;;;5006072;28;20497;-48
2021/12/11 03:58:56;;;;;;;7.10;6.40;;;-1.00;99.90;;;;;;5007585;28;20537;-49
2021/12/11 04:01:28;;;;;;;6.07;5.33;;;-0.90;99.90;;;;;;5010242;28;21021;-48
2021/12/11 04:03:58;;;;;;;7.07;6.37;;;-0.80;99.90;;;;;;5003184;28;20480;-51
2021/12/11 04:06:26;;;;;;;7.33;6.10;;;-0.70;99.90;;;;;;5004029;28;20567;-50
2021/12/11 04:08:55;;;;;;;8.10;6.17;;;-0.60;99.90;;;;;;5006420;28;20563;-48
2021/12/11 04:11:25;;;;;;;7.47;6.10;;;-0.50;99.90;;;;;;5008395;28;20537;-50
2021/12/11 04:13:56;;;;;;;7.63;6.53;;;-0.50;99.90;;;;;;5001735;28;20503;-48
2021/12/11 04:16:26;;;;;;;7.80;6.20;;;-0.50;99.90;;;;;;5000987;28;20532;-50
2021/12/11 04:18:53;;;;;;;6.00;5.40;;;-0.50;99.90;;;;;;5006697;28;20528;-49
2021/12/11 04:21:20;;;;;;;7.83;6.10;;;-0.50;99.90;;;;;;5007752;28;20540;-50
2021/12/11 04:23:47;;;;;;;7.53;6.67;;;-1.10;99.90;;;;;;5008769;28;20529;-49
2021/12/11 04:26:14;;;;;;;8.77;7.50;;;-1.30;99.90;;;;;;5007454;28;20533;-48
2021/12/11 04:28:43;;;;;;;9.57;7.17;;;-1.10;99.90;;;;;;5008720;28;20571;-48
2021/12/11 04:31:13;;;;;;;7.77;7.00;;;-1.00;99.90;;;;;;5004830;28;20861;-49
2021/12/11 04:33:47;;;;;;;8.00;7.07;;;-1.10;99.90;;;;;;5007569;28;20484;-49
2021/12/11 04:36:18;;;;;;;6.63;6.00;;;-1.50;99.90;;;;;;5004505;28;20985;-50
2021/12/11 04:38:46;;;;;;;8.10;6.80;;;-1.50;99.90;;;;;;5005877;28;20469;-48
2021/12/11 04:41:18;;;;;;;7.10;6.40;;;-1.30;99.90;;;;;;5001143;28;20503;-49
2021/12/11 04:43:47;;;;;;;6.87;6.27;;;-1.10;99.90;;;;;;5006786;28;21774;-49
2021/12/11 04:46:15;;;;;;;8.57;7.43;;;-1.00;99.90;;;;;;5008599;28;20498;-49
2021/12/11 04:48:54;;;;;;;10.73;9.83;;;-0.90;99.90;;;;;;5002880;28;20485;-49
2021/12/11 04:51:27;;;;;;;9.60;8.57;;;-0.90;99.90;;;;;;5006140;28;20463;-50
2021/12/11 04:54:05;;;;;;;9.87;8.10;;;-0.80;99.90;;;;;;5000450;28;21038;-49
2021/12/11 04:57:02;;;;;;;8.23;7.53;;;-0.80;99.90;;;;;;5007447;28;20815;-49
2021/12/11 04:59:43;;;;;;;9.33;7.80;;;-0.70;99.90;;;;;;5006742;28;20497;-48
2021/12/11 05:02:39;;;;;;;8.67;7.77;;;-0.70;99.90;;;;;;5004067;28;20441;-48
2021/12/11 05:05:18;;;;;;;10.37;6.87;;;-0.60;99.90;;;;;;5008460;28;20449;-50
2021/12/11 05:07:59;;;;;;;6.97;6.00;;;-0.50;99.90;;;;;;5006248;28;21072;-51
2021/12/11 05:10:36;;;;;;;6.67;6.00;;;-1.00;99.90;;;;;;4999600;28;20452;-47
2021/12/11 05:13:04;;;;;;;7.40;5.87;;;-1.20;99.90;;;;;;5006505;28;20821;-47
2021/12/11 05:15:35;;;;;;;7.43;6.73;;;-1.20;99.90;;;;;;5005807;28;20475;-49
2021/12/11 05:18:03;;;;;;;7.60;6.90;;;-1.00;99.90;;;;;;5005051;28;20909;-49
2021/12/11 05:20:33;;;;;;;9.20;6.80;;;-0.80;99.90;;;;;;5005593;28;20485;-49
2021/12/11 05:23:01;;;;;;;8.70;7.53;;;-0.70;99.90;;;;;;5003045;28;20535;-51
2021/12/11 05:25:28;;;;;;;7.23;6.53;;;-0.60;99.90;;;;;;5004896;28;21009;-50
2021/12/11 05:27:56;;;;;;;7.43;6.23;;;-0.50;99.90;;;;;;5006326;28;20916;-49
2021/12/11 05:30:26;;;;;;;7.50;6.60;;;-0.50;99.90;;;;;;5005708;28;20540;-49
2021/12/11 05:32:54;;;;;;;7.07;6.37;;;-0.50;99.90;;;;;;5006039;28;20477;-48
2021/12/11 05:35:21;;;;;;;7.87;6.00;;;-0.50;99.90;;;;;;5007088;28;20527;-48
2021/12/11 05:37:50;;;;;;;7.13;6.23;;;-0.40;99.90;;;;;;5010666;28;20553;-50
2021/12/11 05:40:22;;;;;;;6.60;5.73;;;-0.50;99.90;;;;;;5003902;28;20531;-48
2021/12/11 05:42:50;;;;;;;7.37;6.00;;;-0.50;99.90;;;;;;5005680;28;20444;-48
2021/12/11 05:45:18;;;;;;;6.30;5.80;;;-0.40;99.90;;;;;;5009006;28;20546;-46
2021/12/11 05:47:45;;;;;;;6.20;5.33;;;-0.40;99.90;;;;;;5010481;28;20572;-49
2021/12/11 05:50:15;;;;;;;6.30;5.70;;;-0.40;99.90;;;;;;5010361;28;20501;-47
2021/12/11 05:52:42;;;;;;;7.30;6.30;;;-0.30;99.90;;;;;;5009122;28;20555;-51
2021/12/11 05:55:15;;;;;;;8.03;7.00;;;-0.30;99.90;;;;;;5009690;28;20493;-48
2021/12/11 05:57:49;;;;;;;6.57;6.07;;;-0.30;99.90;;;;;;5009218;28;20551;-50
2021/12/11 06:00:19;;;;;;;8.10;6.40;;;-0.30;99.90;;;;;;5007956;28;20512;-48
2021/12/11 06:02:46;;;;;;;5.27;4.80;;;-0.40;99.90;;;;;;5011446;28;20517;-49
2021/12/11 06:05:13;;;;;;;5.17;4.70;;;-0.60;99.90;;;;;;5009196;28;20454;-50
2021/12/11 06:07:43;;;;;;;6.33;4.87;;;-0.40;99.90;;;;;;5011210;28;20877;-48
2021/12/11 06:10:15;;;;;;;7.63;6.47;;;-0.40;99.90;;;;;;5006918;28;20854;-50
2021/12/11 06:12:43;;;;;;;13.30;7.13;;;-0.60;99.90;;;;;;5006610;28;20484;-48
2021/12/11 06:15:11;;;;;;;11.70;6.90;;;-0.60;99.90;;;;;;5008563;28;20523;-50
2021/12/11 06:17:41;;;;;;;10.73;9.23;;;-0.50;99.90;;;;;;5008236;28;20552;-51
2021/12/11 06:20:11;;;;;;;10.00;8.50;;;-0.40;99.90;;;;;;5005015;28;20527;-49
2021/12/11 06:22:39;;;;;;;9.23;8.33;;;-0.40;99.90;;;;;;5004273;28;20565;-51
2021/12/11 06:25:10;;;;;;;9.03;7.10;;;-0.30;99.90;;;;;;5006911;28;21275;-48
2021/12/11 06:27:40;;;;;;;8.67;6.90;;;-0.30;99.90;;;;;;5066903;22;20531;-54
2021/12/11 06:30:08;;;;;;;7.33;6.40;;;-0.30;99.90;;;;;;5031758;28;20474;-54
2021/12/11 06:32:35;;;;;;;7.13;6.33;;;-0.90;99.90;;;;;;5030812;28;20530;-55
2021/12/11 06:35:12;;;;;;;6.47;5.90;;;-1.10;99.90;;;;;;5031023;28;20474;-54
2021/12/11 06:37:39;;;;;;;6.47;5.90;;;-1.10;99.90;;;;;;5032139;28;20841;-56
2021/12/11 06:40:08;;;;;;;6.30;5.70;;;-1.00;99.90;;;;;;5031632;28;20615;-54
2021/12/11 06:42:35;;;;;;;5.53;4.93;;;-0.90;99.90;;;;;;5028424;28;20483;-55
2021/12/11 06:45:04;;;;;;;6.93;6.17;;;-0.70;99.90;;;;;;5030257;28;20538;-53
2021/12/11 06:47:32;;;;;;;6.13;5.07;;;-0.60;99.90;;;;;;5032587;28;20567;-55
2021/12/11 06:49:59;;;;;;;8.13;7.33;;;-0.50;99.90;;;;;;5031588;28;20483;-55
2021/12/11 06:52:27;;;;;;;8.80;6.60;;;-0.40;99.90;;;;;;5032277;28;20538;-55
2021/12/11 06:54:54;;;;;;;9.53;7.80;;;-0.40;99.90;;;;;;5031242;28;20475;-55
2021/12/11 06:57:22;;;;;;;7.17;6.47;;;-0.50;99.90;;;;;;5029758;28;20495;-55
2021/12/11 06:59:49;;;;;;;10.73;7.90;;;-0.70;99.90;;;;;;5030783;28;20527;-55
2021/12/11 07:02:20;;;;;;;10.53;9.57;;;-0.50;99.90;;;;;;5031450;28;20546;-56
2021/12/11 07:04:48;;;;;;;10.73;9.60;;;-0.50;99.90;;;;;;5030425;28;20468;-56
2021/12/11 07:07:20;;;;;;;10.20;9.10;;;-0.70;99.90;;;;;;5032289;28;20473;-54
2021/12/11 07:09:48;;;;;;;12.77;9.30;;;-0.60;99.90;;;;;;5032108;28;20564;-55
2021/12/11 07:12:16;;;;;;;300.23;169.90;;;-0.50;99.90;;;;;;5031942;28;20480;-55
2021/12/11 07:14:43;;;;;;;99.50;76.40;;;-0.40;99.90;;;;;;5031517;28;20532;-61
2021/12/11 07:17:11;;;;;;;68.70;57.90;;;-0.40;99.90;;;;;;5029413;28;20555;-54
2021/12/11 07:19:39;;;;;;;22.07;18.77;;;-0.30;99.90;;;;;;5030260;28;20449;-54
2021/12/11 07:22:07;;;;;;;18.13;14.30;;;-0.30;99.90;;;;;;5031280;28;20898;-54
2021/12/11 07:24:39;;;;;;;17.07;12.07;;;-0.20;99.90;;;;;;5030481;28;20504;-54
2021/12/11 07:27:09;;;;;;;11.37;10.17;;;-0.10;99.90;;;;;;5029828;28;20970;-55
2021/12/11 07:29:37;;;;;;;36.80;28.07;;;-0.10;99.90;;;;;;5032320;28;20590;-56
2021/12/11 07:32:06;;;;;;;79.10;57.00;;;-0.10;99.90;;;;;;5030812;28;21010;-54
2021/12/11 07:34:33;;;;;;;14.47;13.03;;;-0.30;99.90;;;;;;5030123;28;20480;-56
2021/12/11 07:37:02;;;;;;;11.93;10.47;;;-0.50;99.90;;;;;;5029587;28;20498;-54
2021/12/11 07:39:29;;;;;;;10.73;9.63;;;-0.40;99.90;;;;;;5031222;28;20456;-56
2021/12/11 07:41:58;;;;;;;12.90;10.40;;;-0.40;99.90;;;;;;5031370;28;20487;-55
2021/12/11 07:44:27;;;;;;;17.03;13.73;;;-0.30;99.90;;;;;;5031450;28;20977;-55
2021/12/11 07:46:57;;;;;;;16.63;13.57;;;-0.20;99.90;;;;;;5030727;28;20448;-57
2021/12/11 07:49:24;;;;;;;15.57;11.73;;;-0.20;99.90;;;;;;5029364;28;20480;-54
2021/12/11 07:51:51;;;;;;;12.17;11.00;;;-0.20;99.90;;;;;;5030149;28;20445;-55
2021/12/11 07:54:21;;;;;;;17.10;13.70;;;-0.10;99.90;;;;;;5030811;28;20480;-55
2021/12/11 07:56:48;;;;;;;17.03;12.10;;;-0.10;99.90;;;;;;5030276;28;20488;-56
2021/12/11 07:59:16;;;;;;;14.37;12.13;;;0.00;99.90;;;;;;5029844;28;20441;-55
2021/12/11 08:01:45;;;;;;;21.50;15.00;;;0.00;99.90;;;;;;5027817;28;20509;-56
2021/12/11 08:04:13;;;;;;;23.20;16.27;;;0.00;99.90;;;;;;5030255;28;20480;-56
2021/12/11 08:06:41;;;;;;;14.00;11.87;;;-0.70;99.90;;;;;;5029356;28;20467;-53
2021/12/11 08:09:12;;;;;;;18.73;12.83;;;-1.00;99.90;;;;;;5029794;28;21270;-54
2021/12/11 08:11:42;;;;;;;15.70;12.13;;;-0.90;99.90;;;;;;5030492;28;20512;-55
2021/12/11 08:14:10;;;;;;;11.10;10.10;;;-0.70;99.90;;;;;;5028915;28;20536;-56
2021/12/11 08:16:45;;;;;;;9.97;8.97;;;-0.50;99.90;;;;;;5030116;28;20481;-56
2021/12/11 08:19:13;;;;;;;10.83;9.30;;;-0.40;99.90;;;;;;5030474;28;20441;-55
2021/12/11 08:21:41;;;;;;;10.40;9.13;;;-0.30;99.90;;;;;;5028814;28;20908;-55
2021/12/11 08:24:08;;;;;;;15.87;13.50;;;-0.20;99.90;;;;;;5030539;28;20516;-59
2021/12/11 08:26:36;;;;;;;15.17;13.63;;;-0.10;99.90;;;;;;5029842;28;20866;-54
2021/12/11 08:29:06;;;;;;;22.07;15.20;;;0.00;99.90;;;;;;5030939;28;20480;-55
2021/12/11 08:31:34;;;;;;;15.70;13.10;;;0.00;99.90;;;;;;5028973;28;20468;-53
2021/12/11 08:34:02;;;;;;;13.27;11.70;;;0.00;99.90;;;;;;5031411;28;20527;-53
2021/12/11 08:36:29;;;;;;;11.93;10.83;;;0.10;99.90;;;;;;5028410;28;20473;-55
2021/12/11 08:38:56;;;;;;;9.70;8.90;;;0.10;99.90;;;;;;5032129;28;20490;-54
2021/12/11 08:41:27;;;;;;;9.73;8.20;;;0.10;99.90;;;;;;5027822;28;20907;-55
2021/12/11 08:43:58;;;;;;;10.77;9.73;;;0.20;99.90;;;;;;5026075;28;20453;-53
2021/12/11 08:46:29;;;;;;;13.57;11.80;;;0.20;99.90;;;;;;5028892;28;20537;-54
2021/12/11 08:48:59;;;;;;;15.93;13.30;;;0.20;99.90;;;;;;5025288;28;20510;-54
2021/12/11 08:51:29;;;;;;;16.60;12.80;;;0.30;99.90;;;;;;5029327;28;20582;-54
2021/12/11 08:53:57;;;;;;;13.10;11.50;;;0.30;99.90;;;;;;5030644;28;20535;-54
2021/12/11 08:56:25;;;;;;;22.97;13.83;;;0.30;99.90;;;;;;5028480;28;20990;-56
2021/12/11 08:58:54;;;;;;;8.50;6.50;;;0.30;99.90;;;;;;5019744;28;20999;-54
2021/12/11 09:01:27;;;;;;;7.10;6.40;;;0.20;99.90;;;;;;5031000;28;20492;-56
2021/12/11 09:03:59;;;;;;;22.07;14.40;;;0.10;99.90;;;;;;5027951;28;20449;-56
2021/12/11 09:06:31;;;;;;;14.07;10.43;;;0.20;99.90;;;;;;5026640;28;20901;-55
2021/12/11 09:09:05;;;;;;;10.13;9.00;;;0.20;99.90;;;;;;5024881;28;20888;-54
2021/12/11 09:11:36;;;;;;;11.13;9.40;;;0.30;99.90;;;;;;5028297;28;20692;-62
2021/12/11 09:14:10;;;;;;;18.67;16.27;;;0.40;99.90;;;;;;5030466;28;20540;-54
2021/12/11 09:16:42;;;;;;;18.90;17.03;;;0.40;99.90;;;;;;5029181;28;20474;-54
2021/12/11 09:19:17;;;;;;;18.67;16.20;;;0.50;99.90;;;;;;5030544;28;20472;-55
2021/12/11 09:21:49;;;;;;;7.97;7.27;;;0.40;99.90;;;;;;5027719;28;20484;-54
2021/12/11 09:24:23;;;;;;;15.13;13.63;;;0.20;99.90;;;;;;5028568;28;20510;-54
2021/12/11 09:26:53;;;;;;;19.30;17.27;;;0.20;99.90;;;;;;5028654;28;20450;-54
2021/12/11 09:29:24;;;;;;;22.13;18.30;;;0.30;99.90;;;;;;5030044;28;20576;-56
2021/12/11 09:32:00;;;;;;;20.40;16.37;;;0.00;99.90;;;;;;5032059;28;20475;-55
2021/12/11 09:34:34;;;;;;;18.67;13.70;;;-0.40;99.90;;;;;;5028753;28;20474;-53
2021/12/11 09:37:04;;;;;;;17.80;14.57;;;-0.50;99.90;;;;;;5028996;28;20494;-53
2021/12/11 09:39:34;;;;;;;16.83;15.23;;;-0.30;99.90;;;;;;5027298;28;20503;-54
2021/12/11 09:42:01;;;;;;;16.13;14.43;;;-0.20;99.90;;;;;;5028943;28;20476;-53
2021/12/11 09:44:33;;;;;;;17.20;15.60;;;-0.10;99.90;;;;;;5028796;28;20508;-55
2021/12/11 09:47:03;;;;;;;17.20;15.40;;;0.00;99.90;;;;;;5029959;28;20819;-56
2021/12/11 09:49:34;;;;;;;59.63;37.63;;;0.10;99.90;;;;;;5028310;28;21063;-55
2021/12/11 09:52:15;;;;;;;42.57;27.93;;;0.10;99.90;;;;;;5027922;28;20478;-55
2021/12/11 09:54:43;;;;;;;20.33;15.80;;;0.00;99.90;;;;;;5027226;28;20543;-55
2021/12/11 09:57:14;;;;;;;16.37;14.77;;;-0.10;99.90;;;;;;5029820;28;20497;-58
2021/12/11 09:59:43;;;;;;;15.03;13.53;;;-0.10;99.90;;;;;;5028692;28;20486;-54
2021/12/11 10:02:14;;;;;;;24.70;20.10;;;0.10;99.90;;;;;;5030014;28;20808;-55
2021/12/11 10:04:47;;;;;;;21.83;19.53;;;0.20;99.90;;;;;;5029365;28;20484;-56
2021/12/11 10:07:28;;;;;;;21.23;17.70;;;0.20;99.90;;;;;;5024901;28;20462;-56
2021/12/11 10:09:59;;;;;;;25.10;21.37;;;0.10;99.90;;;;;;5029247;28;20480;-63
2021/12/11 10:12:32;;;;;;;24.33;21.83;;;0.10;99.90;;;;;;5029494;28;20835;-54
2021/12/11 10:15:04;;;;;;;25.30;23.10;;;0.20;99.90;;;;;;5029540;28;20444;-53
2021/12/11 10:17:37;;;;;;;24.17;21.63;;;0.30;99.90;;;;;;5026636;28;21001;-54
2021/12/11 10:20:12;;;;;;;19.13;16.17;;;0.40;99.90;;;;;;5029095;28;20810;-54
2021/12/11 10:22:40;;;;;;;16.03;14.43;;;0.50;99.90;;;;;;5032233;28;20499;-56
2021/12/11 10:25:13;;;;;;;12.80;10.73;;;0.60;99.90;;;;;;5030129;28;20477;-54
2021/12/11 10:27:41;;;;;;;9.77;9.00;;;0.70;99.90;;;;;;5030264;28;20549;-55
2021/12/11 10:30:12;;;;;;;11.37;10.20;;;0.70;99.90;;;;;;5029686;28;20567;-56
2021/12/11 10:32:39;;;;;;;11.13;10.17;;;0.80;99.90;;;;;;5030524;28;20477;-55
2021/12/11 10:35:11;;;;;;;15.07;13.57;;;0.80;99.90;;;;;;5033282;28;20530;-54
2021/12/11 10:37:39;;;;;;;17.33;15.50;;;0.90;99.90;;;;;;5029291;28;21012;-57
2021/12/11 10:40:17;;;;;;;19.97;18.00;;;0.90;99.90;;;;;;5029294;28;20441;-55
2021/12/11 10:42:46;;;;;;;20.30;16.97;;;1.00;99.90;;;;;;5033179;28;20512;-57
2021/12/11 10:45:16;;;;;;;19.33;17.37;;;1.00;99.90;;;;;;5032605;28;20481;-54
2021/12/11 10:47:48;;;;;;;16.30;13.93;;;1.00;99.90;;;;;;5030359;28;20526;-55
2021/12/11 10:50:20;;;;;;;19.37;17.37;;;0.60;99.90;;;;;;5031566;28;20556;-54
2021/12/11 10:52:48;;;;;;;26.90;20.93;;;0.40;99.90;;;;;;5033263;28;20482;-54
2021/12/11 10:55:19;;;;;;;30.83;22.17;;;0.50;99.90;;;;;;5030195;28;20538;-55
2021/12/11 10:57:46;;;;;;;26.03;20.10;;;0.50;99.90;;;;;;5032023;28;20500;-55
2021/12/11 11:00:25;;;;;;;24.53;19.00;;;0.60;99.90;;;;;;5033012;28;20530;-55
2021/12/11 11:02:52;;;;;;;27.30;20.53;;;0.50;99.90;;;;;;5032909;28;20929;-55
2021/12/11 11:05:23;;;;;;;29.50;20.60;;;0.30;99.90;;;;;;5029918;28;20527;-54
2021/12/11 11:07:51;;;;;;;22.83;18.27;;;0.20;99.90;;;;;;5029130;28;20462;-58
2021/12/11 11:10:22;;;;;;;16.90;14.70;;;0.30;99.90;;;;;;5030606;28;21095;-56
2021/12/11 11:12:50;;;;;;;13.60;11.90;;;0.30;99.90;;;;;;5029485;28;20689;-54
2021/12/11 11:15:21;;;;;;;15.57;13.47;;;0.30;99.90;;;;;;5029991;28;20537;-56
2021/12/11 11:17:49;;;;;;;18.33;16.33;;;0.40;99.90;;;;;;5030217;28;20458;-56
2021/12/11 11:20:20;;;;;;;20.37;18.27;;;0.60;99.90;;;;;;5030867;28;20484;-55
2021/12/11 11:22:47;;;;;;;24.53;20.93;;;0.70;99.90;;;;;;5028830;28;20446;-56
2021/12/11 11:25:19;;;;;;;27.27;24.33;;;0.80;99.90;;;;;;5030493;28;20484;-55
2021/12/11 11:27:50;;;;;;;29.43;21.93;;;0.80;99.90;;;;;;5028929;28;20585;-55
2021/12/11 11:30:27;;;;;;;26.10;22.20;;;0.70;99.90;;;;;;5032872;28;20508;-53
2021/12/11 11:32:55;;;;;;;25.20;22.50;;;0.70;99.90;;;;;;5030277;28;20972;-54
2021/12/11 11:35:28;;;;;;;24.60;22.20;;;0.70;99.90;;;;;;5027528;28;20609;-54
2021/12/11 11:37:58;;;;;;;21.10;18.93;;;0.80;99.90;;;;;;5028541;28;20806;-54
2021/12/11 11:40:29;;;;;;;23.80;19.90;;;0.90;99.90;;;;;;5030199;28;20461;-56
2021/12/11 11:42:57;;;;;;;23.77;20.63;;;0.90;99.90;;;;;;5030316;28;20480;-53
2021/12/11 11:45:27;;;;;;;19.63;17.33;;;0.90;99.90;;;;;;5029557;28;20468;-55
2021/12/11 11:47:55;;;;;;;17.57;15.50;;;0.90;99.90;;;;;;5029755;28;20505;-54
2021/12/11 11:50:26;;;;;;;15.63;13.90;;;0.80;99.90;;;;;;5027406;28;20625;-54
2021/12/11 11:52:54;;;;;;;15.60;14.10;;;0.80;99.90;;;;;;5029799;28;20483;-54
2021/12/11 11:55:29;;;;;;;16.70;15.10;;;0.90;99.90;;;;;;5027400;28;20473;-54
2021/12/11 11:57:57;;;;;;;14.90;13.47;;;0.90;99.90;;;;;;5027562;28;21071;-60
2021/12/11 12:00:32;;;;;;;18.67;16.77;;;0.90;99.90;;;;;;5026990;28;20524;-56
2021/12/11 12:02:59;;;;;;;18.90;15.60;;;0.90;99.90;;;;;;5027584;28;20518;-56
2021/12/11 12:05:29;;;;;;;14.10;12.50;;;0.90;99.90;;;;;;5030130;28;20476;-53
2021/12/11 12:07:57;;;;;;;12.03;10.70;;;0.70;99.90;;;;;;5029917;28;20465;-54
2021/12/11 12:10:27;;;;;;;16.70;15.07;;;0.80;99.90;;;;;;5029216;28;20942;-55
2021/12/11 12:12:55;;;;;;;19.07;17.13;;;0.90;99.90;;;;;;5025650;28;20478;-54
2021/12/11 12:15:27;;;;;;;20.80;16.70;;;1.00;99.90;;;;;;5030637;28;20909;-54
2021/12/11 12:17:55;;;;;;;21.67;17.53;;;1.00;99.90;;;;;;5028582;28;20502;-55
2021/12/11 12:20:24;;;;;;;22.37;18.03;;;1.10;99.90;;;;;;5027529;28;20476;-54
2021/12/11 12:22:52;;;;;;;19.27;17.20;;;1.10;99.90;;;;;;5029863;28;20469;-55
2021/12/11 12:25:20;;;;;;;18.00;16.20;;;1.20;99.90;;;;;;5026555;28;20457;-54
2021/12/11 12:27:51;;;;;;;18.87;15.93;;;1.10;99.90;;;;;;5045276;22;20510;-88
2021/12/11 18:08:53;;;;;;;21.10;16.13;;;0.90;99.90;;;;;;5036745;28;20884;-47
2021/12/11 18:11:26;;;;;;;18.47;16.03;;;1.00;99.90;;;;;;5019341;28;20485;-49
2021/12/11 18:13:59;;;;;;;19.10;16.93;;;1.10;99.90;;;;;;5011326;28;20526;-48
2021/12/11 18:16:30;;;;;;;19.70;16.87;;;1.20;99.90;;;;;;5011611;28;20943;-48
2021/12/11 18:19:08;;;;;;;18.50;16.50;;;1.20;99.90;;;;;;5010568;28;20537;-49
2021/12/11 18:21:38;;;;;;;24.47;17.40;;;1.30;99.90;;;;;;5038145;23;20529;-81
2021/12/11 18:24:07;;;;;;;16.97;15.23;;;1.30;99.90;;;;;;5006941;28;20471;-80
2021/12/11 18:26:35;;;;;;;16.70;15.00;;;1.30;99.90;;;;;;4994059;28;20498;-81
2021/12/11 18:29:05;;;;;;;16.47;14.73;;;1.30;99.90;;;;;;4987424;28;20480;-81
2021/12/11 18:31:33;;;;;;;16.00;14.30;;;1.40;99.90;;;;;;4991273;28;20547;-81
2021/12/11 18:34:01;;;;;;;15.20;13.40;;;1.20;99.90;;;;;;4986210;28;20490;-81